sensor_id;sensor_type;location;lat;lon;timestamp;pressure;altitude;pressure_sealevel;temperature;humidity
64023;BME280;50264;52.088;5.296;2022-07-11T00:00:53;102396.0;;;18.02;78.31
64023;BME280;50264;52.088;5.296;2022-07-11T00:04:27;102401.0;;;18.0;78.03
64023;BME280;50264;52.088;5.296;2022-07-11T00:06:14;102398.0;;;17.98;78.36
64023;BME280;50264;52.088;5.296;2022-07-11T00:08:00;102394.0;;;18.2;77.61
64023;BME280;50264;52.088;5.296;2022-07-11T00:09:47;102392.0;;;18.21;77.55
64023;BME280;50264;52.088;5.296;2022-07-11T00:11:34;102392.0;;;18.14;77.5
64023;BME280;50264;52.088;5.296;2022-07-11T00:13:21;102394.0;;;18.07;77.89
64023;BME280;50264;52.088;5.296;2022-07-11T00:16:54;102393.0;;;18.16;78.08
64023;BME280;50264;52.088;5.296;2022-07-11T00:18:41;102394.0;;;18.14;77.36
64023;BME280;50264;52.088;5.296;2022-07-11T00:20:28;102393.0;;;18.16;77.69
64023;BME280;50264;52.088;5.296;2022-07-11T00:22:15;102393.0;;;18.18;77.36
64023;BME280;50264;52.088;5.296;2022-07-11T00:24:04;102393.0;;;18.22;77.13
64023;BME280;50264;52.088;5.296;2022-07-11T00:25:51;102396.0;;;18.18;77.55
64023;BME280;50264;52.088;5.296;2022-07-11T00:29:23;102392.0;;;18.18;77.36
64023;BME280;50264;52.088;5.296;2022-07-11T00:31:10;102392.0;;;18.09;77.8
64023;BME280;50264;52.088;5.296;2022-07-11T00:32:56;102394.0;;;18.16;77.83
64023;BME280;50264;52.088;5.296;2022-07-11T00:34:42;102391.0;;;18.2;77.3
64023;BME280;50264;52.088;5.296;2022-07-11T00:36:29;102392.0;;;18.2;77.69
64023;BME280;50264;52.088;5.296;2022-07-11T00:40:01;102386.0;;;18.29;77.27
64023;BME280;50264;52.088;5.296;2022-07-11T00:41:48;102388.0;;;18.3;77.23
64023;BME280;50264;52.088;5.296;2022-07-11T00:43:38;102389.0;;;18.37;77.12
64023;BME280;50264;52.088;5.296;2022-07-11T00:45:24;102384.0;;;18.34;76.37
64023;BME280;50264;52.088;5.296;2022-07-11T00:47:11;102385.0;;;18.3;76.62
64023;BME280;50264;52.088;5.296;2022-07-11T00:48:57;102386.0;;;18.27;76.95
64023;BME280;50264;52.088;5.296;2022-07-11T00:52:32;102377.0;;;18.28;76.44
64023;BME280;50264;52.088;5.296;2022-07-11T00:54:21;102381.0;;;18.3;76.58
64023;BME280;50264;52.088;5.296;2022-07-11T00:56:09;102384.0;;;18.21;76.48
64023;BME280;50264;52.088;5.296;2022-07-11T00:57:56;102386.0;;;18.29;76.55
64023;BME280;50264;52.088;5.296;2022-07-11T00:59:43;102389.0;;;18.31;76.99
64023;BME280;50264;52.088;5.296;2022-07-11T01:01:32;102382.0;;;18.29;77.33
64023;BME280;50264;52.088;5.296;2022-07-11T01:05:06;102383.0;;;18.29;77.52
64023;BME280;50264;52.088;5.296;2022-07-11T01:06:53;102383.0;;;18.27;77.52
64023;BME280;50264;52.088;5.296;2022-07-11T01:08:40;102377.0;;;18.36;77.33
64023;BME280;50264;52.088;5.296;2022-07-11T01:10:27;102385.0;;;18.41;77.2
64023;BME280;50264;52.088;5.296;2022-07-11T01:12:14;102381.0;;;18.34;77.66
64023;BME280;50264;52.088;5.296;2022-07-11T01:14:00;102380.0;;;18.37;76.52
64023;BME280;50264;52.088;5.296;2022-07-11T01:17:32;102380.0;;;18.41;76.81
64023;BME280;50264;52.088;5.296;2022-07-11T01:19:18;102383.0;;;18.39;76.58
64023;BME280;50264;52.088;5.296;2022-07-11T01:21:10;102383.0;;;18.45;76.5
64023;BME280;50264;52.088;5.296;2022-07-11T01:23:03;102382.0;;;18.45;76.3
64023;BME280;50264;52.088;5.296;2022-07-11T01:24:51;102377.0;;;18.52;76.11
64023;BME280;50264;52.088;5.296;2022-07-11T01:26:39;102381.0;;;18.48;76.27
64023;BME280;50264;52.088;5.296;2022-07-11T01:30:11;102386.0;;;18.43;76.13
64023;BME280;50264;52.088;5.296;2022-07-11T01:31:57;102382.0;;;18.5;75.44
64023;BME280;50264;52.088;5.296;2022-07-11T01:33:43;102383.0;;;18.45;76.7
64023;BME280;50264;52.088;5.296;2022-07-11T01:35:30;102381.0;;;18.54;75.97
64023;BME280;50264;52.088;5.296;2022-07-11T01:37:18;102377.0;;;18.57;75.75
64023;BME280;50264;52.088;5.296;2022-07-11T01:39:04;102378.0;;;18.5;75.89
64023;BME280;50264;52.088;5.296;2022-07-11T01:42:38;102381.0;;;18.47;76.09
64023;BME280;50264;52.088;5.296;2022-07-11T01:44:24;102377.0;;;18.59;75.86
64023;BME280;50264;52.088;5.296;2022-07-11T01:46:11;102378.0;;;18.55;75.7
64023;BME280;50264;52.088;5.296;2022-07-11T01:47:58;102378.0;;;18.45;75.41
64023;BME280;50264;52.088;5.296;2022-07-11T01:49:44;102387.0;;;18.45;76.14
64023;BME280;50264;52.088;5.296;2022-07-11T01:53:17;102385.0;;;18.43;76.34
64023;BME280;50264;52.088;5.296;2022-07-11T01:55:04;102388.0;;;18.43;76.53
64023;BME280;50264;52.088;5.296;2022-07-11T01:56:50;102381.0;;;18.5;76.08
64023;BME280;50264;52.088;5.296;2022-07-11T01:58:36;102384.0;;;18.46;75.91
64023;BME280;50264;52.088;5.296;2022-07-11T02:00:23;102380.0;;;18.5;76.08
64023;BME280;50264;52.088;5.296;2022-07-11T02:02:09;102376.0;;;18.5;75.66
64023;BME280;50264;52.088;5.296;2022-07-11T02:05:43;102377.0;;;18.55;75.52
64023;BME280;50264;52.088;5.296;2022-07-11T02:08:33;102378.0;;;18.66;74.87
64023;BME280;50264;52.088;5.296;2022-07-11T02:10:21;102376.0;;;18.53;75.66
64023;BME280;50264;52.088;5.296;2022-07-11T02:12:08;102377.0;;;18.61;74.86
64023;BME280;50264;52.088;5.296;2022-07-11T02:13:54;102380.0;;;18.62;75.56
64023;BME280;50264;52.088;5.296;2022-07-11T02:15:42;102374.0;;;18.52;75.73
64023;BME280;50264;52.088;5.296;2022-07-11T02:17:29;102371.0;;;18.61;75.38
64023;BME280;50264;52.088;5.296;2022-07-11T02:19:16;102375.0;;;18.56;75.28
64023;BME280;50264;52.088;5.296;2022-07-11T02:21:03;102372.0;;;18.53;75.53
64023;BME280;50264;52.088;5.296;2022-07-11T02:24:36;102372.0;;;18.53;75.27
64023;BME280;50264;52.088;5.296;2022-07-11T02:26:22;102371.0;;;18.53;75.67
64023;BME280;50264;52.088;5.296;2022-07-11T02:28:09;102368.0;;;18.47;75.5
64023;BME280;50264;52.088;5.296;2022-07-11T02:29:56;102371.0;;;18.43;75.88
64023;BME280;50264;52.088;5.296;2022-07-11T02:31:42;102374.0;;;18.34;76.19
64023;BME280;50264;52.088;5.296;2022-07-11T02:33:28;102372.0;;;18.41;76.55
64023;BME280;50264;52.088;5.296;2022-07-11T02:37:02;102369.0;;;18.43;76.44
64023;BME280;50264;52.088;5.296;2022-07-11T02:38:48;102371.0;;;18.37;75.84
64023;BME280;50264;52.088;5.296;2022-07-11T02:40:34;102365.0;;;18.43;76.12
64023;BME280;50264;52.088;5.296;2022-07-11T02:42:22;102364.0;;;18.46;75.77
64023;BME280;50264;52.088;5.296;2022-07-11T02:44:09;102368.0;;;18.36;75.98
64023;BME280;50264;52.088;5.296;2022-07-11T02:47:42;102364.0;;;18.47;75.58
64023;BME280;50264;52.088;5.296;2022-07-11T02:49:30;102362.0;;;18.47;75.66
64023;BME280;50264;52.088;5.296;2022-07-11T02:51:16;102364.0;;;18.53;75.2
64023;BME280;50264;52.088;5.296;2022-07-11T02:53:03;102362.0;;;18.45;76.12
64023;BME280;50264;52.088;5.296;2022-07-11T02:54:49;102357.0;;;18.45;75.94
64023;BME280;50264;52.088;5.296;2022-07-11T02:56:35;102359.0;;;18.41;76.91
64023;BME280;50264;52.088;5.296;2022-07-11T03:00:10;102364.0;;;18.38;75.97
64023;BME280;50264;52.088;5.296;2022-07-11T03:01:59;102364.0;;;18.5;75.52
64023;BME280;50264;52.088;5.296;2022-07-11T03:03:45;102363.0;;;18.5;75.73
64023;BME280;50264;52.088;5.296;2022-07-11T03:05:32;102367.0;;;18.41;76.05
64023;BME280;50264;52.088;5.296;2022-07-11T03:07:19;102369.0;;;18.34;76.08
64023;BME280;50264;52.088;5.296;2022-07-11T03:09:05;102374.0;;;18.45;75.61
64023;BME280;50264;52.088;5.296;2022-07-11T03:12:38;102369.0;;;18.53;75.36
64023;BME280;50264;52.088;5.296;2022-07-11T03:14:25;102377.0;;;18.5;75.89
64023;BME280;50264;52.088;5.296;2022-07-11T03:16:11;102376.0;;;18.32;76.45
64023;BME280;50264;52.088;5.296;2022-07-11T03:17:57;102378.0;;;18.32;76.33
64023;BME280;50264;52.088;5.296;2022-07-11T03:19:44;102380.0;;;18.34;76.5
64023;BME280;50264;52.088;5.296;2022-07-11T03:23:18;102380.0;;;18.41;76.31
64023;BME280;50264;52.088;5.296;2022-07-11T03:25:06;102380.0;;;18.41;76.2
64023;BME280;50264;52.088;5.296;2022-07-11T03:26:53;102382.0;;;18.38;76.36
64023;BME280;50264;52.088;5.296;2022-07-11T03:28:39;102383.0;;;18.43;76.16
64023;BME280;50264;52.088;5.296;2022-07-11T03:30:26;102383.0;;;18.34;77.08
64023;BME280;50264;52.088;5.296;2022-07-11T03:32:12;102384.0;;;18.25;77.16
64023;BME280;50264;52.088;5.296;2022-07-11T03:35:46;102380.0;;;18.21;77.74
64023;BME280;50264;52.088;5.296;2022-07-11T03:37:32;102378.0;;;18.27;77.36
64023;BME280;50264;52.088;5.296;2022-07-11T03:39:21;102380.0;;;18.3;77.55
64023;BME280;50264;52.088;5.296;2022-07-11T03:41:07;102382.0;;;18.32;78.16
64023;BME280;50264;52.088;5.296;2022-07-11T03:42:54;102380.0;;;18.21;78.2
64023;BME280;50264;52.088;5.296;2022-07-11T03:44:40;102381.0;;;18.28;78.16
64023;BME280;50264;52.088;5.296;2022-07-11T03:48:12;102383.0;;;18.18;78.61
64023;BME280;50264;52.088;5.296;2022-07-11T03:49:58;102382.0;;;18.16;79.84
64023;BME280;50264;52.088;5.296;2022-07-11T03:51:45;102382.0;;;18.12;79.99
64023;BME280;50264;52.088;5.296;2022-07-11T03:53:31;102377.0;;;18.18;79.86
64023;BME280;50264;52.088;5.296;2022-07-11T03:55:18;102382.0;;;18.11;80.02
64023;BME280;50264;52.088;5.296;2022-07-11T03:58:52;102380.0;;;18.11;80.19
64023;BME280;50264;52.088;5.296;2022-07-11T04:00:38;102383.0;;;18.03;80.19
64023;BME280;50264;52.088;5.296;2022-07-11T04:02:24;102382.0;;;18.16;79.83
64023;BME280;50264;52.088;5.296;2022-07-11T04:04:11;102382.0;;;18.02;80.95
64023;BME280;50264;52.088;5.296;2022-07-11T04:05:57;102386.0;;;17.91;80.81
64023;BME280;50264;52.088;5.296;2022-07-11T04:07:44;102391.0;;;17.91;81.5
64023;BME280;50264;52.088;5.296;2022-07-11T04:11:17;102388.0;;;17.88;81.28
64023;BME280;50264;52.088;5.296;2022-07-11T04:13:03;102390.0;;;17.91;81.14
64023;BME280;50264;52.088;5.296;2022-07-11T04:14:49;102389.0;;;17.89;81.33
64023;BME280;50264;52.088;5.296;2022-07-11T04:16:36;102384.0;;;18.02;80.55
64023;BME280;50264;52.088;5.296;2022-07-11T04:18:23;102385.0;;;17.98;80.81
64023;BME280;50264;52.088;5.296;2022-07-11T04:20:10;102397.0;;;17.91;80.97
64023;BME280;50264;52.088;5.296;2022-07-11T04:23:45;102395.0;;;17.95;81.47
64023;BME280;50264;52.088;5.296;2022-07-11T04:25:33;102395.0;;;17.97;80.92
64023;BME280;50264;52.088;5.296;2022-07-11T04:27:19;102391.0;;;18.07;80.55
64023;BME280;50264;52.088;5.296;2022-07-11T04:29:05;102398.0;;;18.05;79.97
64023;BME280;50264;52.088;5.296;2022-07-11T04:30:51;102394.0;;;18.14;79.24
64023;BME280;50264;52.088;5.296;2022-07-11T04:34:25;102392.0;;;18.13;79.49
64023;BME280;50264;52.088;5.296;2022-07-11T04:36:11;102394.0;;;18.02;79.61
64023;BME280;50264;52.088;5.296;2022-07-11T04:37:58;102394.0;;;18.03;79.8
64023;BME280;50264;52.088;5.296;2022-07-11T04:39:46;102388.0;;;18.09;79.33
64023;BME280;50264;52.088;5.296;2022-07-11T04:41:33;102383.0;;;18.11;79.72
64023;BME280;50264;52.088;5.296;2022-07-11T04:43:19;102380.0;;;18.05;80.09
64023;BME280;50264;52.088;5.296;2022-07-11T04:46:53;102378.0;;;18.12;79.91
64023;BME280;50264;52.088;5.296;2022-07-11T04:48:39;102384.0;;;18.11;80.11
64023;BME280;50264;52.088;5.296;2022-07-11T04:50:25;102380.0;;;18.11;79.62
64023;BME280;50264;52.088;5.296;2022-07-11T04:52:11;102382.0;;;18.12;79.56
64023;BME280;50264;52.088;5.296;2022-07-11T04:53:58;102384.0;;;18.09;79.2
64023;BME280;50264;52.088;5.296;2022-07-11T04:55:45;102384.0;;;18.13;79.78
64023;BME280;50264;52.088;5.296;2022-07-11T04:59:17;102388.0;;;18.2;79.36
64023;BME280;50264;52.088;5.296;2022-07-11T05:01:05;102387.0;;;18.11;79.37
64023;BME280;50264;52.088;5.296;2022-07-11T05:02:51;102387.0;;;18.18;79.83
64023;BME280;50264;52.088;5.296;2022-07-11T05:04:38;102397.0;;;18.09;80.37
64023;BME280;50264;52.088;5.296;2022-07-11T05:06:26;102400.0;;;18.11;80.23
64023;BME280;50264;52.088;5.296;2022-07-11T05:09:58;102399.0;;;18.11;79.41
64023;BME280;50264;52.088;5.296;2022-07-11T05:11:44;102403.0;;;18.14;80.19
64023;BME280;50264;52.088;5.296;2022-07-11T05:13:31;102405.0;;;18.22;79.66
64023;BME280;50264;52.088;5.296;2022-07-11T05:15:18;102404.0;;;18.29;78.86
64023;BME280;50264;52.088;5.296;2022-07-11T05:17:05;102408.0;;;18.23;79.06
64023;BME280;50264;52.088;5.296;2022-07-11T05:18:52;102415.00000000001;;;18.25;78.81
64023;BME280;50264;52.088;5.296;2022-07-11T05:22:25;102417.0;;;18.2;78.91
64023;BME280;50264;52.088;5.296;2022-07-11T05:24:11;102418.0;;;18.23;78.83
64023;BME280;50264;52.088;5.296;2022-07-11T05:25:57;102418.0;;;18.2;78.84
64023;BME280;50264;52.088;5.296;2022-07-11T05:27:43;102419.0;;;18.16;78.77
64023;BME280;50264;52.088;5.296;2022-07-11T05:29:29;102425.0;;;18.16;78.97
64023;BME280;50264;52.088;5.296;2022-07-11T05:31:16;102424.0;;;18.21;78.72
64023;BME280;50264;52.088;5.296;2022-07-11T05:34:49;102426.0;;;18.23;79.66
64023;BME280;50264;52.088;5.296;2022-07-11T05:36:35;102428.0;;;18.29;79.34
64023;BME280;50264;52.088;5.296;2022-07-11T05:38:21;102428.0;;;18.21;79.55
64023;BME280;50264;52.088;5.296;2022-07-11T05:40:08;102425.0;;;18.18;79.55
64023;BME280;50264;52.088;5.296;2022-07-11T05:41:55;102423.0;;;18.31;79.87
64023;BME280;50264;52.088;5.296;2022-07-11T05:45:28;102426.0;;;18.23;79.97
64023;BME280;50264;52.088;5.296;2022-07-11T05:47:14;102426.0;;;18.21;79.52
64023;BME280;50264;52.088;5.296;2022-07-11T05:49:01;102429.0;;;18.23;80.59
64023;BME280;50264;52.088;5.296;2022-07-11T05:50:47;102431.0;;;18.23;80.38
64023;BME280;50264;52.088;5.296;2022-07-11T05:52:33;102432.0;;;18.27;80.05
64023;BME280;50264;52.088;5.296;2022-07-11T05:54:20;102429.0;;;18.36;80.25
64023;BME280;50264;52.088;5.296;2022-07-11T05:57:54;102431.0;;;18.34;79.49
64023;BME280;50264;52.088;5.296;2022-07-11T05:59:41;102430.0;;;18.31;79.31
64023;BME280;50264;52.088;5.296;2022-07-11T06:01:27;102433.99999999999;;;18.36;78.99
64023;BME280;50264;52.088;5.296;2022-07-11T06:03:13;102432.0;;;18.41;80.19
64023;BME280;50264;52.088;5.296;2022-07-11T06:05:00;102430.0;;;18.43;80.31
64023;BME280;50264;52.088;5.296;2022-07-11T06:08:41;102430.0;;;18.45;79.45
64023;BME280;50264;52.088;5.296;2022-07-11T06:10:28;102424.0;;;18.46;78.8
64023;BME280;50264;52.088;5.296;2022-07-11T06:12:15;102432.0;;;18.59;79.34
64023;BME280;50264;52.088;5.296;2022-07-11T06:14:02;102436.99999999999;;;18.47;80.69
64023;BME280;50264;52.088;5.296;2022-07-11T06:15:48;102433.99999999999;;;18.55;80.08
64023;BME280;50264;52.088;5.296;2022-07-11T06:17:34;102440.00000000001;;;18.56;80.91
64023;BME280;50264;52.088;5.296;2022-07-11T06:21:07;102436.99999999999;;;18.43;80.58
64023;BME280;50264;52.088;5.296;2022-07-11T06:22:54;102431.0;;;18.41;80.75
64023;BME280;50264;52.088;5.296;2022-07-11T06:24:41;102433.0;;;18.41;82.06
64023;BME280;50264;52.088;5.296;2022-07-11T06:26:28;102428.0;;;18.34;82.61
64023;BME280;50264;52.088;5.296;2022-07-11T06:28:14;102436.99999999999;;;18.43;82.38
64023;BME280;50264;52.088;5.296;2022-07-11T06:30:01;102436.99999999999;;;18.46;81.84
64023;BME280;50264;52.088;5.296;2022-07-11T06:33:34;102438.00000000001;;;18.5;80.5
64023;BME280;50264;52.088;5.296;2022-07-11T06:35:22;102434.99999999999;;;18.66;80.83
64023;BME280;50264;52.088;5.296;2022-07-11T06:37:09;102436.99999999999;;;18.7;81.58
64023;BME280;50264;52.088;5.296;2022-07-11T06:38:55;102433.0;;;18.56;80.38
64023;BME280;50264;52.088;5.296;2022-07-11T06:40:42;102438.00000000001;;;18.66;82.11
64023;BME280;50264;52.088;5.296;2022-07-11T06:42:28;102434.99999999999;;;18.68;79.91
64023;BME280;50264;52.088;5.296;2022-07-11T06:46:01;102424.0;;;18.86;79.22
64023;BME280;50264;52.088;5.296;2022-07-11T06:47:48;102433.99999999999;;;18.93;79.25
64023;BME280;50264;52.088;5.296;2022-07-11T06:49:34;102430.0;;;18.79;76.08
64023;BME280;50264;52.088;5.296;2022-07-11T06:51:22;102430.0;;;18.71;75.08
64023;BME280;50264;52.088;5.296;2022-07-11T06:53:09;102429.0;;;18.81;76.05
64023;BME280;50264;52.088;5.296;2022-07-11T06:56:42;102424.0;;;18.66;75.55
64023;BME280;50264;52.088;5.296;2022-07-11T06:58:35;102420.0;;;18.86;76.28
64023;BME280;50264;52.088;5.296;2022-07-11T07:00:22;102420.0;;;18.86;76.02
64023;BME280;50264;52.088;5.296;2022-07-11T07:02:09;102422.0;;;18.84;75.81
64023;BME280;50264;52.088;5.296;2022-07-11T07:03:55;102424.0;;;18.86;74.73
64023;BME280;50264;52.088;5.296;2022-07-11T07:05:41;102422.0;;;19.02;75.64
64023;BME280;50264;52.088;5.296;2022-07-11T07:09:15;102419.0;;;19.03;74.72
64023;BME280;50264;52.088;5.296;2022-07-11T07:11:01;102416.00000000001;;;19.21;73.2
64023;BME280;50264;52.088;5.296;2022-07-11T07:12:48;102417.0;;;19.39;74.3
64023;BME280;50264;52.088;5.296;2022-07-11T07:14:35;102419.0;;;19.45;73.5
64023;BME280;50264;52.088;5.296;2022-07-11T07:16:21;102419.0;;;19.47;73.33
64023;BME280;50264;52.088;5.296;2022-07-11T07:18:07;102417.0;;;19.62;73.5
64023;BME280;50264;52.088;5.296;2022-07-11T07:21:41;102419.0;;;19.77;73.06
64023;BME280;50264;52.088;5.296;2022-07-11T07:23:27;102421.0;;;19.88;71.97
64023;BME280;50264;52.088;5.296;2022-07-11T07:25:13;102428.0;;;19.86;72.33
64023;BME280;50264;52.088;5.296;2022-07-11T07:26:59;102429.0;;;19.81;70.67
64023;BME280;50264;52.088;5.296;2022-07-11T07:28:46;102430.0;;;19.88;70.8
64023;BME280;50264;52.088;5.296;2022-07-11T07:30:33;102430.0;;;19.77;69.47
64023;BME280;50264;52.088;5.296;2022-07-11T07:34:08;102433.99999999999;;;19.91;70.49
64023;BME280;50264;52.088;5.296;2022-07-11T07:35:55;102438.00000000001;;;19.88;69.91
64023;BME280;50264;52.088;5.296;2022-07-11T07:37:42;102433.99999999999;;;19.89;70.7
64023;BME280;50264;52.088;5.296;2022-07-11T07:39:28;102434.99999999999;;;19.84;70.84
64023;BME280;50264;52.088;5.296;2022-07-11T07:41:16;102433.99999999999;;;19.79;70.55
64023;BME280;50264;52.088;5.296;2022-07-11T07:44:50;102436.99999999999;;;19.77;71.11
64023;BME280;50264;52.088;5.296;2022-07-11T07:46:37;102441.00000000001;;;19.86;70.11
64023;BME280;50264;52.088;5.296;2022-07-11T07:48:23;102447.0;;;19.89;70.61
64023;BME280;50264;52.088;5.296;2022-07-11T07:50:09;102441.00000000001;;;19.81;70.5
64023;BME280;50264;52.088;5.296;2022-07-11T07:51:56;102439.00000000001;;;19.89;70.02
64023;BME280;50264;52.088;5.296;2022-07-11T07:53:42;102442.0;;;19.86;69.63
64023;BME280;50264;52.088;5.296;2022-07-11T07:57:16;102438.00000000001;;;19.82;69.44
64023;BME280;50264;52.088;5.296;2022-07-11T07:59:02;102442.0;;;19.79;69.23
64023;BME280;50264;52.088;5.296;2022-07-11T08:01:52;102446.0;;;19.86;70.62
64023;BME280;50264;52.088;5.296;2022-07-11T08:03:38;102453.0;;;20.0;68.52
64023;BME280;50264;52.088;5.296;2022-07-11T08:05:25;102450.0;;;20.11;68.17
64023;BME280;50264;52.088;5.296;2022-07-11T08:07:11;102448.0;;;20.09;68.34
64023;BME280;50264;52.088;5.296;2022-07-11T08:08:58;102446.0;;;20.38;68.47
64023;BME280;50264;52.088;5.296;2022-07-11T08:10:45;102442.0;;;20.34;67.8
64023;BME280;50264;52.088;5.296;2022-07-11T08:12:31;102444.0;;;20.36;68.69
64023;BME280;50264;52.088;5.296;2022-07-11T08:16:05;102445.0;;;20.5;67.97
64023;BME280;50264;52.088;5.296;2022-07-11T08:17:52;102450.0;;;20.41;68.77
64023;BME280;50264;52.088;5.296;2022-07-11T08:19:38;102448.0;;;20.38;69.22
64023;BME280;50264;52.088;5.296;2022-07-11T08:21:25;102456.0;;;20.43;68.22
64023;BME280;50264;52.088;5.296;2022-07-11T08:23:12;102457.0;;;20.41;68.56
64023;BME280;50264;52.088;5.296;2022-07-11T08:24:59;102457.0;;;20.56;67.62
64023;BME280;50264;52.088;5.296;2022-07-11T08:28:32;102453.0;;;20.6;67.7
64023;BME280;50264;52.088;5.296;2022-07-11T08:30:19;102453.0;;;20.58;68.17
64023;BME280;50264;52.088;5.296;2022-07-11T08:32:06;102463.00000000001;;;20.57;69.24
64023;BME280;50264;52.088;5.296;2022-07-11T08:33:53;102464.00000000001;;;20.45;68.55
64023;BME280;50264;52.088;5.296;2022-07-11T08:35:39;102459.99999999999;;;20.45;67.94
64023;BME280;50264;52.088;5.296;2022-07-11T08:39:12;102454.0;;;20.56;68.3
64023;BME280;50264;52.088;5.296;2022-07-11T08:40:58;102449.0;;;20.45;69.28
64023;BME280;50264;52.088;5.296;2022-07-11T08:42:45;102445.0;;;20.31;68.44
64023;BME280;50264;52.088;5.296;2022-07-11T08:44:32;102443.0;;;20.41;68.88
64023;BME280;50264;52.088;5.296;2022-07-11T08:46:20;102441.00000000001;;;20.46;69.44
64023;BME280;50264;52.088;5.296;2022-07-11T08:48:07;102439.00000000001;;;20.46;68.67
64023;BME280;50264;52.088;5.296;2022-07-11T08:51:46;102440.00000000001;;;20.56;67.62
64023;BME280;50264;52.088;5.296;2022-07-11T08:53:38;102436.99999999999;;;20.58;68.33
64023;BME280;50264;52.088;5.296;2022-07-11T08:55:25;102433.0;;;20.81;68.64
64023;BME280;50264;52.088;5.296;2022-07-11T08:57:13;102442.0;;;20.73;67.37
64023;BME280;50264;52.088;5.296;2022-07-11T08:59:00;102434.99999999999;;;20.81;67.74
64023;BME280;50264;52.088;5.296;2022-07-11T09:00:46;102438.00000000001;;;20.83;67.77
64023;BME280;50264;52.088;5.296;2022-07-11T09:04:22;102440.00000000001;;;20.93;67.41
64023;BME280;50264;52.088;5.296;2022-07-11T09:06:11;102438.00000000001;;;21.0;67.6
64023;BME280;50264;52.088;5.296;2022-07-11T09:07:59;102440.00000000001;;;20.98;66.85
64023;BME280;50264;52.088;5.296;2022-07-11T09:09:45;102442.0;;;20.99;67.3
64023;BME280;50264;52.088;5.296;2022-07-11T09:11:48;102438.00000000001;;;21.11;65.59
64023;BME280;50264;52.088;5.296;2022-07-11T09:13:36;102436.99999999999;;;21.08;66.8
64023;BME280;50264;52.088;5.296;2022-07-11T09:15:31;102439.00000000001;;;20.95;66.23
64023;BME280;50264;52.088;5.296;2022-07-11T09:17:24;102436.99999999999;;;21.06;66.47
64023;BME280;50264;52.088;5.296;2022-07-11T09:27:13;102450.0;;;21.08;66.52
64023;BME280;50264;52.088;5.296;2022-07-11T09:29:00;102449.0;;;21.27;67.7
64023;BME280;50264;52.088;5.296;2022-07-11T09:30:49;102449.0;;;21.11;65.61
64023;BME280;50264;52.088;5.296;2022-07-11T09:32:41;102448.0;;;21.14;65.73
64023;BME280;50264;52.088;5.296;2022-07-11T09:34:36;102444.0;;;21.12;64.72
64023;BME280;50264;52.088;5.296;2022-07-11T09:36:33;102443.0;;;21.25;65.33
64023;BME280;50264;52.088;5.296;2022-07-11T09:38:21;102442.0;;;21.38;68.02
64023;BME280;50264;52.088;5.296;2022-07-11T09:41:57;102441.00000000001;;;21.4;66.12
64023;BME280;50264;52.088;5.296;2022-07-11T09:43:43;102445.0;;;21.26;65.48
64023;BME280;50264;52.088;5.296;2022-07-11T09:45:31;102442.0;;;20.97;65.44
64023;BME280;50264;52.088;5.296;2022-07-11T09:47:18;102448.0;;;21.08;67.59
64023;BME280;50264;52.088;5.296;2022-07-11T09:49:05;102449.0;;;21.16;66.44
64023;BME280;50264;52.088;5.296;2022-07-11T09:50:56;102447.0;;;21.19;67.33
64023;BME280;50264;52.088;5.296;2022-07-11T09:54:53;102447.0;;;21.21;66.05
64023;BME280;50264;52.088;5.296;2022-07-11T09:56:42;102445.0;;;21.15;65.81
64023;BME280;50264;52.088;5.296;2022-07-11T09:58:29;102443.0;;;21.08;65.53
64023;BME280;50264;52.088;5.296;2022-07-11T10:00:16;102444.0;;;21.1;65.27
64023;BME280;50264;52.088;5.296;2022-07-11T10:02:03;102442.0;;;21.11;65.38
64023;BME280;50264;52.088;5.296;2022-07-11T10:03:50;102444.0;;;21.08;65.52
64023;BME280;50264;52.088;5.296;2022-07-11T10:05:36;102442.0;;;21.1;64.77
64023;BME280;50264;52.088;5.296;2022-07-11T10:09:11;102445.0;;;21.02;66.12
64023;BME280;50264;52.088;5.296;2022-07-11T10:10:57;102448.0;;;21.11;65.5
64023;BME280;50264;52.088;5.296;2022-07-11T10:12:45;102449.0;;;21.22;66.36
64023;BME280;50264;52.088;5.296;2022-07-11T10:14:34;102446.0;;;21.27;66.99
64023;BME280;50264;52.088;5.296;2022-07-11T10:16:31;102446.0;;;21.17;65.97
64023;BME280;50264;52.088;5.296;2022-07-11T10:18:31;102449.0;;;21.26;66.05
64023;BME280;50264;52.088;5.296;2022-07-11T10:20:28;102450.0;;;21.34;64.49
64023;BME280;50264;52.088;5.296;2022-07-11T10:22:29;102452.0;;;21.43;64.33
64023;BME280;50264;52.088;5.296;2022-07-11T10:24:28;102452.0;;;21.46;64.09
64023;BME280;50264;52.088;5.296;2022-07-11T10:26:22;102452.0;;;21.32;65.02
64023;BME280;50264;52.088;5.296;2022-07-11T10:30:40;102454.0;;;21.33;63.68
64023;BME280;50264;52.088;5.296;2022-07-11T10:32:27;102455.0;;;21.48;65.53
64023;BME280;50264;52.088;5.296;2022-07-11T10:34:27;102452.0;;;21.37;64.06
64023;BME280;50264;52.088;5.296;2022-07-11T10:36:25;102457.0;;;21.39;64.75
64023;BME280;50264;52.088;5.296;2022-07-11T10:38:13;102454.0;;;21.32;64.08
64023;BME280;50264;52.088;5.296;2022-07-11T10:39:59;102458.0;;;21.45;63.96
64023;BME280;50264;52.088;5.296;2022-07-11T10:41:45;102451.0;;;21.32;64.91
64023;BME280;50264;52.088;5.296;2022-07-11T10:43:37;102453.0;;;21.46;64.64
64023;BME280;50264;52.088;5.296;2022-07-11T10:45:24;102452.0;;;21.59;64.55
64023;BME280;50264;52.088;5.296;2022-07-11T10:47:31;102451.0;;;21.58;63.51
64023;BME280;50264;52.088;5.296;2022-07-11T10:49:34;102449.0;;;21.54;63.7
64023;BME280;50264;52.088;5.296;2022-07-11T10:51:28;102452.0;;;21.74;63.62
64023;BME280;50264;52.088;5.296;2022-07-11T10:55:22;102453.0;;;21.55;63.28
64023;BME280;50264;52.088;5.296;2022-07-11T10:57:22;102448.0;;;21.68;63.57
64023;BME280;50264;52.088;5.296;2022-07-11T10:59:13;102450.0;;;21.68;63.03
64023;BME280;50264;52.088;5.296;2022-07-11T11:01:08;102444.0;;;21.82;62.96